GPLMD EGGD-EGGP
Flight info
| Callsign | GPLMD |
|---|---|
| Flight time | 0h 41m |
| Altitude | 17000 |
| Route | BCN P69 DIZIM N864 MONTY |
| Aircraft | B60T/L-SDFGRY/C |
Departure
| Time | 2026-05-07 02:34 |
|---|---|
| Airport | Bristol Airport (EGGD) |
Arrival
| Time | 2026-05-07 03:15 |
|---|---|
| Airport | Liverpool John Lennon Airport (EGGP) |
| Time | Latitude | Longitude | Altitude | Speed | Heading |
|---|---|---|---|---|---|
| 2026-05-07 02:13 | 51.38501 | -2.72179 | 611 ft | 0 kts | 356° |
| 2026-05-07 02:16 | 51.38498 | -2.72179 | 611 ft | 2 kts | 356° |
| 2026-05-07 02:17 | 51.38483 | -2.72173 | 614 ft | 2 kts | 299° |
| 2026-05-07 02:17 | 51.38488 | -2.72151 | 619 ft | 2 kts | 226° |
| 2026-05-07 02:17 | 51.38490 | -2.72147 | 618 ft | 0 kts | 224° |
| 2026-05-07 02:28 | 51.38489 | -2.72148 | 611 ft | 1 kts | 224° |
| 2026-05-07 02:28 | 51.38478 | -2.72166 | 621 ft | 6 kts | 224° |
| 2026-05-07 02:28 | 51.38441 | -2.72225 | 612 ft | 7 kts | 230° |
| 2026-05-07 02:29 | 51.38421 | -2.72286 | 617 ft | 7 kts | 254° |
| 2026-05-07 02:29 | 51.38417 | -2.72374 | 612 ft | 10 kts | 267° |
| 2026-05-07 02:29 | 51.38412 | -2.72497 | 613 ft | 12 kts | 264° |
| 2026-05-07 02:29 | 51.38405 | -2.72645 | 613 ft | 14 kts | 269° |
| 2026-05-07 02:30 | 51.38400 | -2.72797 | 614 ft | 14 kts | 266° |
| 2026-05-07 02:30 | 51.38395 | -2.72945 | 622 ft | 13 kts | 265° |
| 2026-05-07 02:30 | 51.38391 | -2.73083 | 616 ft | 12 kts | 268° |
| 2026-05-07 02:30 | 51.38386 | -2.73186 | 616 ft | 6 kts | 262° |
| 2026-05-07 02:31 | 51.38382 | -2.73236 | 616 ft | 3 kts | 262° |
| 2026-05-07 02:31 | 51.38377 | -2.73264 | 623 ft | 2 kts | 242° |
| 2026-05-07 02:31 | 51.38341 | -2.73329 | 620 ft | 9 kts | 201° |
| 2026-05-07 02:31 | 51.38306 | -2.73341 | 617 ft | 2 kts | 188° |
| 2026-05-07 02:32 | 51.38287 | -2.73343 | 617 ft | 7 kts | 177° |
| 2026-05-07 02:32 | 51.38248 | -2.73328 | 618 ft | 5 kts | 155° |
| 2026-05-07 02:32 | 51.38222 | -2.73292 | 618 ft | 4 kts | 118° |
| 2026-05-07 02:32 | 51.38217 | -2.73274 | 618 ft | 1 kts | 107° |
| 2026-05-07 02:33 | 51.38215 | -2.73250 | 617 ft | 0 kts | 86° |
| 2026-05-07 02:33 | 51.38221 | -2.73088 | 614 ft | 53 kts | 86° |
| 2026-05-07 02:33 | 51.38254 | -2.72087 | 755 ft | 110 kts | 89° |
| 2026-05-07 02:34 | 51.38289 | -2.70816 | 1359 ft | 121 kts | 90° |
| 2026-05-07 02:34 | 51.38291 | -2.69379 | 2038 ft | 137 kts | 88° |
| 2026-05-07 02:34 | 51.38392 | -2.67853 | 2904 ft | 137 kts | 84° |
| 2026-05-07 02:34 | 51.38487 | -2.66323 | 3734 ft | 143 kts | 87° |
| 2026-05-07 02:35 | 51.38546 | -2.64690 | 4501 ft | 150 kts | 88° |
| 2026-05-07 02:35 | 51.38579 | -2.63036 | 5367 ft | 148 kts | 87° |
| 2026-05-07 02:35 | 51.38662 | -2.61391 | 6216 ft | 149 kts | 84° |
| 2026-05-07 02:35 | 51.38757 | -2.59714 | 6993 ft | 151 kts | 85° |
| 2026-05-07 02:36 | 51.38799 | -2.58041 | 7776 ft | 153 kts | 94° |
| 2026-05-07 02:36 | 51.38737 | -2.56294 | 8484 ft | 156 kts | 90° |
| 2026-05-07 02:36 | 51.38926 | -2.54630 | 9320 ft | 156 kts | 69° |
| 2026-05-07 02:36 | 51.39446 | -2.52970 | 9795 ft | 174 kts | 49° |
| 2026-05-07 02:37 | 51.40484 | -2.52089 | 10462 ft | 170 kts | 4° |
| 2026-05-07 02:37 | 51.41583 | -2.52508 | 11098 ft | 169 kts | 325° |
| 2026-05-07 02:37 | 51.42342 | -2.54007 | 11579 ft | 176 kts | 296° |
| 2026-05-07 02:37 | 51.42960 | -2.55704 | 12051 ft | 183 kts | 308° |
| 2026-05-07 02:38 | 51.43856 | -2.57202 | 12516 ft | 190 kts | 315° |
| 2026-05-07 02:38 | 51.44824 | -2.58736 | 12845 ft | 199 kts | 313° |
| 2026-05-07 02:38 | 51.45776 | -2.60364 | 13313 ft | 200 kts | 308° |
| 2026-05-07 02:38 | 51.46563 | -2.62198 | 13801 ft | 200 kts | 300° |
| 2026-05-07 02:39 | 51.47277 | -2.64114 | 14247 ft | 200 kts | 300° |
| 2026-05-07 02:39 | 51.48011 | -2.66021 | 14706 ft | 202 kts | 301° |
| 2026-05-07 02:39 | 51.48781 | -2.67945 | 15196 ft | 207 kts | 302° |
| 2026-05-07 02:39 | 51.49573 | -2.69885 | 15719 ft | 209 kts | 302° |
| 2026-05-07 02:40 | 51.50373 | -2.71829 | 16239 ft | 209 kts | 302° |
| 2026-05-07 02:40 | 51.51173 | -2.73773 | 16770 ft | 209 kts | 302° |
| 2026-05-07 02:40 | 51.52000 | -2.75783 | 16956 ft | 225 kts | 302° |
| 2026-05-07 02:40 | 51.52882 | -2.77925 | 16985 ft | 239 kts | 302° |
| 2026-05-07 02:41 | 51.53820 | -2.80195 | 17001 ft | 248 kts | 302° |
| 2026-05-07 02:41 | 51.54783 | -2.82528 | 17002 ft | 253 kts | 302° |
| 2026-05-07 02:41 | 51.55758 | -2.84896 | 17041 ft | 253 kts | 302° |
| 2026-05-07 02:41 | 51.56713 | -2.87232 | 17042 ft | 247 kts | 302° |
| 2026-05-07 02:42 | 51.57649 | -2.89522 | 17041 ft | 243 kts | 302° |
| 2026-05-07 02:42 | 51.58576 | -2.91795 | 17045 ft | 243 kts | 302° |
| 2026-05-07 02:42 | 51.59502 | -2.94071 | 17049 ft | 243 kts | 302° |
| 2026-05-07 02:42 | 51.60429 | -2.96345 | 17049 ft | 243 kts | 302° |
| 2026-05-07 02:43 | 51.61357 | -2.98624 | 17051 ft | 243 kts | 302° |
| 2026-05-07 02:43 | 51.62285 | -3.00904 | 17053 ft | 243 kts | 302° |
| 2026-05-07 02:43 | 51.63213 | -3.03182 | 17051 ft | 243 kts | 302° |
| 2026-05-07 02:43 | 51.64141 | -3.05461 | 17050 ft | 243 kts | 302° |
| 2026-05-07 02:44 | 51.65056 | -3.07714 | 17049 ft | 243 kts | 302° |
| 2026-05-07 02:44 | 51.65982 | -3.09995 | 17051 ft | 243 kts | 302° |
| 2026-05-07 02:44 | 51.66907 | -3.12278 | 17050 ft | 243 kts | 302° |
| 2026-05-07 02:44 | 51.67833 | -3.14562 | 17053 ft | 244 kts | 302° |
| 2026-05-07 02:45 | 51.68760 | -3.16852 | 17048 ft | 244 kts | 302° |
| 2026-05-07 02:45 | 51.69686 | -3.19142 | 17048 ft | 244 kts | 302° |
| 2026-05-07 02:45 | 51.70613 | -3.21434 | 17042 ft | 244 kts | 302° |
| 2026-05-07 02:45 | 51.71719 | -3.23504 | 17045 ft | 245 kts | 319° |
| 2026-05-07 02:46 | 51.73185 | -3.24913 | 17045 ft | 248 kts | 337° |
| 2026-05-07 02:46 | 51.74869 | -3.25522 | 17043 ft | 250 kts | 355° |
| 2026-05-07 02:46 | 51.76604 | -3.25314 | 17042 ft | 251 kts | 8° |
| 2026-05-07 02:46 | 51.78328 | -3.24873 | 17039 ft | 251 kts | 7° |
| 2026-05-07 02:47 | 51.80054 | -3.24436 | 17041 ft | 251 kts | 7° |
| 2026-05-07 02:47 | 51.81778 | -3.23999 | 17035 ft | 251 kts | 7° |
| 2026-05-07 02:47 | 51.83505 | -3.23565 | 17042 ft | 251 kts | 7° |
| 2026-05-07 02:47 | 51.85231 | -3.23132 | 17041 ft | 251 kts | 7° |
| 2026-05-07 02:48 | 51.86958 | -3.22702 | 17038 ft | 251 kts | 7° |
| 2026-05-07 02:48 | 51.88687 | -3.22272 | 17039 ft | 251 kts | 7° |
| 2026-05-07 02:48 | 51.90415 | -3.21844 | 17036 ft | 251 kts | 7° |
| 2026-05-07 02:48 | 51.92141 | -3.21417 | 17035 ft | 251 kts | 7° |
| 2026-05-07 02:49 | 51.93867 | -3.20989 | 17033 ft | 250 kts | 7° |
| 2026-05-07 02:49 | 51.95590 | -3.20561 | 17031 ft | 251 kts | 7° |
| 2026-05-07 02:49 | 51.97292 | -3.20139 | 17031 ft | 250 kts | 7° |
| 2026-05-07 02:49 | 51.99013 | -3.19712 | 17031 ft | 251 kts | 7° |
| 2026-05-07 02:50 | 52.00737 | -3.19285 | 17017 ft | 251 kts | 7° |
| 2026-05-07 02:50 | 52.02465 | -3.18855 | 17005 ft | 251 kts | 7° |
| 2026-05-07 02:50 | 52.04198 | -3.18502 | 16999 ft | 251 kts | 4° |
| 2026-05-07 02:50 | 52.05935 | -3.18336 | 16994 ft | 250 kts | 1° |
| 2026-05-07 02:51 | 52.07674 | -3.18212 | 16991 ft | 250 kts | 1° |
| 2026-05-07 02:51 | 52.09411 | -3.18078 | 16993 ft | 250 kts | 1° |
| 2026-05-07 02:51 | 52.11147 | -3.17940 | 16995 ft | 250 kts | 1° |
| 2026-05-07 02:51 | 52.12882 | -3.17803 | 16994 ft | 250 kts | 1° |
| 2026-05-07 02:52 | 52.14619 | -3.17666 | 16991 ft | 250 kts | 1° |
| 2026-05-07 02:52 | 52.16353 | -3.17531 | 16995 ft | 250 kts | 1° |
| 2026-05-07 02:52 | 52.18088 | -3.17396 | 16995 ft | 250 kts | 1° |
| 2026-05-07 02:52 | 52.19823 | -3.17261 | 16992 ft | 250 kts | 1° |
| 2026-05-07 02:53 | 52.21556 | -3.17233 | 16994 ft | 249 kts | 354° |
| 2026-05-07 02:53 | 52.23252 | -3.17728 | 16998 ft | 247 kts | 343° |
| 2026-05-07 02:53 | 52.24920 | -3.18440 | 16993 ft | 247 kts | 345° |
| 2026-05-07 02:53 | 52.26598 | -3.19071 | 16994 ft | 248 kts | 346° |
| 2026-05-07 02:54 | 52.28259 | -3.19677 | 16990 ft | 247 kts | 346° |
| 2026-05-07 02:54 | 52.29937 | -3.20293 | 16991 ft | 247 kts | 346° |
| 2026-05-07 02:54 | 52.31619 | -3.20920 | 16997 ft | 248 kts | 345° |
| 2026-05-07 02:54 | 52.33297 | -3.21554 | 16996 ft | 248 kts | 345° |
| 2026-05-07 02:55 | 52.34977 | -3.22196 | 16996 ft | 248 kts | 345° |
| 2026-05-07 02:55 | 52.36658 | -3.22841 | 16995 ft | 248 kts | 345° |
| 2026-05-07 02:55 | 52.37769 | -3.23269 | 16994 ft | 248 kts | 345° |
| 2026-05-07 02:55 | 52.39449 | -3.23919 | 16992 ft | 248 kts | 345° |
| 2026-05-07 02:56 | 52.41129 | -3.24570 | 16990 ft | 248 kts | 345° |
| 2026-05-07 02:56 | 52.42811 | -3.25221 | 16989 ft | 248 kts | 345° |
| 2026-05-07 02:56 | 52.44490 | -3.25873 | 16990 ft | 248 kts | 345° |
| 2026-05-07 02:56 | 52.46169 | -3.26523 | 16988 ft | 248 kts | 345° |
| 2026-05-07 02:57 | 52.47846 | -3.27176 | 16990 ft | 248 kts | 345° |
| 2026-05-07 02:57 | 52.49525 | -3.27829 | 16992 ft | 248 kts | 345° |
| 2026-05-07 02:57 | 52.51205 | -3.28482 | 16989 ft | 248 kts | 345° |
| 2026-05-07 02:57 | 52.52880 | -3.29135 | 16989 ft | 248 kts | 345° |
| 2026-05-07 02:58 | 52.54563 | -3.29790 | 16987 ft | 248 kts | 345° |
| 2026-05-07 02:58 | 52.56242 | -3.30445 | 16988 ft | 248 kts | 345° |
| 2026-05-07 02:58 | 52.57917 | -3.31098 | 16989 ft | 248 kts | 345° |
| 2026-05-07 02:58 | 52.59597 | -3.31755 | 16988 ft | 248 kts | 345° |
| 2026-05-07 02:59 | 52.61273 | -3.32408 | 16988 ft | 248 kts | 345° |
| 2026-05-07 02:59 | 52.62963 | -3.32693 | 16988 ft | 250 kts | 1° |
| 2026-05-07 02:59 | 52.64646 | -3.32144 | 16866 ft | 247 kts | 17° |
| 2026-05-07 02:59 | 52.66271 | -3.31180 | 16545 ft | 248 kts | 19° |
| 2026-05-07 03:00 | 52.67888 | -3.30199 | 16237 ft | 248 kts | 18° |
| 2026-05-07 03:00 | 52.69511 | -3.29225 | 15923 ft | 248 kts | 18° |
| 2026-05-07 03:00 | 52.71123 | -3.28259 | 15607 ft | 244 kts | 18° |
| 2026-05-07 03:00 | 52.72704 | -3.27315 | 15304 ft | 240 kts | 18° |
| 2026-05-07 03:01 | 52.74263 | -3.26380 | 15003 ft | 238 kts | 18° |
| 2026-05-07 03:01 | 52.75814 | -3.25451 | 14712 ft | 237 kts | 18° |
| 2026-05-07 03:01 | 52.77362 | -3.24529 | 14422 ft | 236 kts | 17° |
| 2026-05-07 03:01 | 52.78904 | -3.23608 | 14134 ft | 236 kts | 17° |
| 2026-05-07 03:02 | 52.80440 | -3.22689 | 13866 ft | 234 kts | 17° |
| 2026-05-07 03:02 | 52.81972 | -3.21770 | 13572 ft | 234 kts | 17° |
| 2026-05-07 03:02 | 52.83498 | -3.20854 | 13276 ft | 233 kts | 18° |
| 2026-05-07 03:02 | 52.85025 | -3.19939 | 12980 ft | 236 kts | 18° |
| 2026-05-07 03:03 | 52.86581 | -3.19001 | 12688 ft | 240 kts | 18° |
| 2026-05-07 03:03 | 52.88133 | -3.18063 | 12401 ft | 241 kts | 17° |
| 2026-05-07 03:03 | 52.89742 | -3.17375 | 12120 ft | 235 kts | 5° |
| 2026-05-07 03:03 | 52.91336 | -3.17312 | 11832 ft | 225 kts | 358° |
| 2026-05-07 03:04 | 52.92886 | -3.17194 | 11545 ft | 221 kts | 1° |
| 2026-05-07 03:04 | 52.94408 | -3.17025 | 11269 ft | 218 kts | 1° |
| 2026-05-07 03:04 | 52.95919 | -3.16872 | 10992 ft | 217 kts | 1° |
| 2026-05-07 03:04 | 52.97421 | -3.16739 | 10716 ft | 216 kts | 1° |
| 2026-05-07 03:05 | 52.98917 | -3.16616 | 10446 ft | 215 kts | 1° |
| 2026-05-07 03:05 | 53.00414 | -3.16499 | 10187 ft | 217 kts | 1° |
| 2026-05-07 03:05 | 53.01950 | -3.16380 | 9918 ft | 224 kts | 1° |
| 2026-05-07 03:05 | 53.03512 | -3.16259 | 9618 ft | 225 kts | 0° |
| 2026-05-07 03:06 | 53.05067 | -3.16139 | 9316 ft | 223 kts | 0° |
| 2026-05-07 03:06 | 53.06610 | -3.16014 | 9023 ft | 221 kts | 1° |
| 2026-05-07 03:06 | 53.08144 | -3.15890 | 8728 ft | 220 kts | 1° |
| 2026-05-07 03:06 | 53.09667 | -3.15765 | 8438 ft | 218 kts | 0° |
| 2026-05-07 03:07 | 53.11140 | -3.15646 | 8158 ft | 212 kts | 0° |
| 2026-05-07 03:07 | 53.12620 | -3.15524 | 7882 ft | 209 kts | 0° |
| 2026-05-07 03:07 | 53.14081 | -3.15410 | 7676 ft | 212 kts | 0° |
| 2026-05-07 03:07 | 53.15551 | -3.15295 | 7487 ft | 216 kts | 0° |
| 2026-05-07 03:08 | 53.17054 | -3.15176 | 7287 ft | 217 kts | 0° |
| 2026-05-07 03:08 | 53.18564 | -3.15048 | 7086 ft | 216 kts | 0° |
| 2026-05-07 03:08 | 53.20012 | -3.14689 | 6884 ft | 209 kts | 21° |
| 2026-05-07 03:08 | 53.21228 | -3.13393 | 6684 ft | 206 kts | 27° |
| 2026-05-07 03:09 | 53.22583 | -3.12879 | 6445 ft | 200 kts | 358° |
| 2026-05-07 03:09 | 53.23968 | -3.12984 | 5880 ft | 194 kts | 353° |
| 2026-05-07 03:09 | 53.25291 | -3.13189 | 5380 ft | 188 kts | 352° |
| 2026-05-07 03:09 | 53.26606 | -3.13422 | 4894 ft | 192 kts | 352° |
| 2026-05-07 03:10 | 53.27941 | -3.13689 | 4408 ft | 193 kts | 349° |
| 2026-05-07 03:10 | 53.29271 | -3.13964 | 3908 ft | 194 kts | 2° |
| 2026-05-07 03:10 | 53.30505 | -3.13130 | 3419 ft | 193 kts | 43° |
| 2026-05-07 03:10 | 53.31311 | -3.11388 | 3033 ft | 185 kts | 62° |
| 2026-05-07 03:11 | 53.31927 | -3.09629 | 2704 ft | 173 kts | 63° |
| 2026-05-07 03:11 | 53.32455 | -3.07892 | 2575 ft | 161 kts | 73° |
| 2026-05-07 03:11 | 53.32755 | -3.06078 | 2548 ft | 177 kts | 86° |
| 2026-05-07 03:11 | 53.32809 | -3.03859 | 2545 ft | 196 kts | 97° |
| 2026-05-07 03:12 | 53.32727 | -3.02096 | 2335 ft | 122 kts | 100° |
| 2026-05-07 03:12 | 53.32751 | -3.00690 | 2005 ft | 124 kts | 92° |
| 2026-05-07 03:12 | 53.32831 | -2.99236 | 1696 ft | 128 kts | 94° |
| 2026-05-07 03:12 | 53.32856 | -2.97766 | 1346 ft | 125 kts | 97° |
| 2026-05-07 03:13 | 53.32879 | -2.96330 | 1114 ft | 122 kts | 89° |
| 2026-05-07 03:13 | 53.32968 | -2.94918 | 807 ft | 120 kts | 92° |
| 2026-05-07 03:13 | 53.32998 | -2.93643 | 749 ft | 106 kts | 93° |
| 2026-05-07 03:13 | 53.33040 | -2.92407 | 799 ft | 107 kts | 90° |
| 2026-05-07 03:14 | 53.33015 | -2.91167 | 775 ft | 107 kts | 84° |
| 2026-05-07 03:14 | 53.33159 | -2.89952 | 582 ft | 102 kts | 90° |
| 2026-05-07 03:14 | 53.33244 | -2.87637 | 246 ft | 101 kts | 91° |
| 2026-05-07 03:15 | 53.33292 | -2.86523 | 106 ft | 92 kts | 91° |
| 2026-05-07 03:15 | 53.33331 | -2.85599 | 81 ft | 68 kts | 86° |
| 2026-05-07 03:15 | 53.33364 | -2.84901 | 79 ft | 45 kts | 85° |
| 2026-05-07 03:15 | 53.33400 | -2.84595 | 75 ft | 21 kts | 63° |
| 2026-05-07 03:16 | 53.33457 | -2.84423 | 82 ft | 15 kts | 58° |
| 2026-05-07 03:16 | 53.33514 | -2.84264 | 80 ft | 5 kts | 44° |
| 2026-05-07 03:16 | 53.33515 | -2.84262 | 80 ft | 0 kts | 48° |
| 2026-05-07 03:17 | 53.33539 | -2.84213 | 80 ft | 9 kts | 58° |
| 2026-05-07 03:17 | 53.33561 | -2.84145 | 81 ft | 6 kts | 65° |
| 2026-05-07 03:17 | 53.33574 | -2.84014 | 79 ft | 16 kts | 85° |
| 2026-05-07 03:17 | 53.33580 | -2.83853 | 79 ft | 10 kts | 84° |
| 2026-05-07 03:18 | 53.33621 | -2.83800 | 81 ft | 7 kts | 355° |
| 2026-05-07 03:18 | 53.33663 | -2.83805 | 80 ft | 5 kts | 355° |
| 2026-05-07 03:18 | 53.33698 | -2.83811 | 80 ft | 9 kts | 355° |
| 2026-05-07 03:18 | 53.33733 | -2.83813 | 80 ft | 0 kts | 8° |